Time;durP1;ratioP1;P1;durP2;ratioP2;P2;SDS_P1;SDS_P2;PMS_P1;PMS_P2;Temp;Humidity;BMP_temperature;BMP_pressure;BME280_temperature;BME280_humidity;BME280_pressure;Samples;Min_cycle;Max_cycle;Signal;HPM_P1;HPM_P2
2022/09/12 00:00:41;;;;;;;4.18;3.78;;;;;;;15.36;100.00;94284.97;5032903;28;20209;-61
2022/09/12 00:03:07;;;;;;;5.40;3.75;;;;;;;15.31;100.00;94282.09;5015064;28;20198;-61
2022/09/12 00:05:32;;;;;;;3.90;3.60;;;;;;;15.36;100.00;94277.28;5032552;28;20242;-63
2022/09/12 00:07:59;;;;;;;5.20;3.55;;;;;;;15.31;100.00;94289.00;5032554;28;20189;-60
2022/09/12 00:10:25;;;;;;;3.83;3.38;;;;;;;15.31;100.00;94289.00;5032704;28;20267;-63
2022/09/12 00:12:51;;;;;;;4.30;3.88;;;;;;;15.31;100.00;94294.13;5032378;28;20214;-61
2022/09/12 00:15:16;;;;;;;5.28;3.60;;;;;;;15.30;100.00;94295.88;5032459;28;20348;-61
2022/09/12 00:17:42;;;;;;;4.93;4.28;;;;;;;15.17;100.00;94289.69;5031756;28;20277;-61
2022/09/12 00:20:09;;;;;;;5.43;4.55;;;;;;;15.21;100.00;94296.88;5032246;28;20218;-62
2022/09/12 00:22:36;;;;;;;5.13;4.18;;;;;;;15.06;100.00;94294.22;5032470;28;20209;-60
2022/09/12 00:25:02;;;;;;;4.60;4.10;;;;;;;15.04;100.00;94296.16;5032299;28;20210;-63
2022/09/12 00:27:29;;;;;;;5.63;5.10;;;;;;;15.03;100.00;94297.09;5032210;28;20659;-60
2022/09/12 00:29:54;;;;;;;5.57;4.85;;;;;;;15.03;100.00;94299.66;5032204;28;20602;-64
2022/09/12 00:32:20;;;;;;;5.10;4.57;;;;;;;14.96;100.00;94301.28;5032092;28;20202;-61
2022/09/12 00:34:46;;;;;;;5.55;4.85;;;;;;;14.99;100.00;94293.28;5032196;28;20724;-62
2022/09/12 00:37:12;;;;;;;5.07;4.68;;;;;;;14.90;100.00;94289.16;5014381;28;20632;-60
2022/09/12 00:39:38;;;;;;;5.73;4.37;;;;;;;14.87;100.00;94289.47;5031996;28;20209;-60
2022/09/12 00:42:03;;;;;;;5.25;4.78;;;;;;;14.93;100.00;94293.94;5014439;28;20595;-63
2022/09/12 00:44:29;;;;;;;4.13;3.83;;;;;;;14.87;100.00;94299.72;5032309;28;20214;-63
2022/09/12 00:47:20;;;;;;;4.65;4.07;;;;;;;14.86;100.00;94299.88;5014400;28;20229;-64
2022/09/12 00:50:04;;;;;;;4.33;3.83;;;;;;;14.92;100.00;94297.47;5031945;28;20210;-63
2022/09/12 00:52:51;;;;;;;4.37;3.97;;;;;;;14.83;100.00;94306.13;5031974;28;20221;-62
2022/09/12 00:55:31;;;;;;;19.48;3.85;;;;;;;14.85;100.00;94303.38;5031834;28;20338;-62
2022/09/12 00:58:01;;;;;;;4.50;4.10;;;;;;;14.81;100.00;94295.25;5032069;28;20194;-60
2022/09/12 01:00:27;;;;;;;5.27;4.77;;;;;;;14.79;100.00;94297.16;5031545;28;20225;-62
2022/09/12 01:02:58;;;;;;;4.78;4.40;;;;;;;14.72;100.00;94293.69;5031856;28;21025;-62
2022/09/12 01:05:27;;;;;;;6.13;4.97;;;;;;;14.74;100.00;94294.31;5031613;28;20241;-62
2022/09/12 01:07:58;;;;;;;4.85;3.90;;;;;;;14.73;100.00;94294.47;5031672;28;20190;-61
2022/09/12 01:10:23;;;;;;;4.87;4.03;;;;;;;14.67;100.00;94283.13;5031570;28;20268;-60
2022/09/12 01:12:49;;;;;;;4.20;3.80;;;;;;;14.59;100.00;94285.72;5031450;28;20214;-60
2022/09/12 01:15:15;;;;;;;4.07;3.67;;;;;;;14.67;100.00;94287.44;5031609;28;20585;-63
2022/09/12 01:18:06;;;;;;;4.07;3.60;;;;;;;14.69;100.00;94281.22;5031474;28;20182;-61
2022/09/12 01:20:35;;;;;;;3.67;3.37;;;;;;;14.67;100.00;94290.00;5031580;28;20255;-63
2022/09/12 01:23:18;;;;;;;4.22;3.83;;;;;;;14.67;100.00;94290.81;5013623;28;20190;-60
2022/09/12 01:26:21;;;;;;;4.53;3.53;;;;;;;14.68;100.00;94281.38;5031442;28;20190;-60
2022/09/12 01:28:49;;;;;;;4.30;3.40;;;;;;;14.59;100.00;94283.16;5031000;28;20325;-63
2022/09/12 01:31:33;;;;;;;3.50;3.30;;;;;;;14.63;100.00;94283.59;5013551;28;20202;-63
2022/09/12 01:33:59;;;;;;;4.70;4.00;;;;;;;14.64;100.00;94292.91;5031268;28;20213;-60
2022/09/12 01:36:27;;;;;;;5.38;4.07;;;;;;;14.52;100.00;94283.97;5031615;28;20194;-61
2022/09/12 01:39:01;;;;;;;4.30;3.92;;;;;;;14.50;100.00;94281.59;5031106;28;20202;-62
2022/09/12 01:41:29;;;;;;;4.53;4.05;;;;;;;14.55;100.00;94281.06;5031371;28;20201;-61
2022/09/12 01:43:57;;;;;;;5.88;3.92;;;;;;;14.53;100.00;94281.25;5031205;28;20297;-61
2022/09/12 01:46:28;;;;;;;4.63;3.60;;;;;;;14.52;100.00;94277.09;5031261;28;20187;-60
2022/09/12 01:49:10;;;;;;;4.27;3.53;;;;;;;14.58;100.00;94276.44;5013396;28;20236;-63
2022/09/12 01:51:44;;;;;;;3.67;3.00;;;;;;;14.58;100.00;94291.00;5031018;28;20241;-61
2022/09/12 01:54:22;;;;;;;5.07;3.20;;;;;;;14.49;100.00;94274.03;5031129;28;20215;-62
2022/09/12 01:56:53;;;;;;;2.88;2.67;;;;;;;14.50;100.00;94270.53;5031423;28;20609;-61
2022/09/12 01:59:42;;;;;;;3.47;3.00;;;;;;;14.52;100.00;94269.44;5030976;28;20209;-61
2022/09/12 02:02:15;;;;;;;3.28;3.08;;;;;;;14.64;100.00;94275.78;5031020;28;20212;-61
2022/09/12 02:05:01;;;;;;;3.43;3.13;;;;;;;14.48;100.00;94283.50;5030924;28;20218;-61
2022/09/12 02:07:34;;;;;;;7.28;2.95;;;;;;;14.47;100.00;94279.34;5030951;28;20266;-60
2022/09/12 02:10:08;;;;;;;3.47;3.17;;;;;;;14.52;100.00;94269.44;5038643;22;20238;-62
2022/09/12 02:12:57;;;;;;;4.10;3.10;;;;;;;14.45;100.00;94276.13;5030839;28;20662;-61
2022/09/12 02:15:38;;;;;;;3.13;2.92;;;;;;;14.37;100.00;94276.16;5030481;28;20265;-62
2022/09/12 02:18:05;;;;;;;3.60;3.30;;;;;;;14.48;100.00;94275.81;5030899;28;20579;-64
2022/09/12 02:20:37;;;;;;;4.45;3.08;;;;;;;14.40;100.00;94280.16;5030700;28;20289;-61
2022/09/12 02:23:07;;;;;;;3.40;3.10;;;;;;;14.32;100.00;94282.72;5030844;28;20196;-63
2022/09/12 02:25:36;;;;;;;3.92;3.53;;;;;;;14.24;100.00;94280.94;5030625;28;20732;-62
2022/09/12 02:28:09;;;;;;;3.22;2.90;;;;;;;14.14;100.00;94270.88;5030485;28;20202;-62
2022/09/12 02:30:43;;;;;;;3.87;3.57;;;;;;;14.17;100.00;94269.75;5030737;28;20301;-62
2022/09/12 02:33:29;;;;;;;4.28;3.88;;;;;;;14.10;100.00;94261.91;5012886;28;20221;-62
2022/09/12 02:36:12;;;;;;;4.33;3.87;;;;;;;14.22;100.00;94270.06;5030539;28;20273;-62
2022/09/12 02:38:45;;;;;;;3.50;3.20;;;;;;;14.20;100.00;94272.00;5030585;28;20210;-60
2022/09/12 02:41:14;;;;;;;4.35;3.25;;;;;;;14.22;100.00;94283.63;5031225;28;20248;-60
2022/09/12 02:43:40;;;;;;;3.67;2.93;;;;;;;14.28;100.00;94285.59;5033907;28;20241;-62
2022/09/12 02:46:12;;;;;;;2.78;2.58;;;;;;;14.26;100.00;94299.47;5016148;28;20217;-61
2022/09/12 02:48:41;;;;;;;5.20;2.83;;;;;;;14.32;100.00;94293.75;5034095;28;20232;-61
2022/09/12 02:51:07;;;;;;;4.55;2.22;;;;;;;14.32;100.00;94298.06;5033876;28;20197;-62
2022/09/12 02:53:33;;;;;;;3.22;2.67;;;;;;;14.35;100.00;94298.53;5033754;28;20225;-63
2022/09/12 02:55:59;;;;;;;4.73;2.97;;;;;;;14.37;100.00;94298.38;5016070;28;20676;-60
2022/09/12 02:58:27;;;;;;;6.93;2.72;;;;;;;14.39;100.00;94306.66;5033501;28;20208;-63
2022/09/12 03:01:02;;;;;;;2.80;2.50;;;;;;;14.32;100.00;94305.72;5033586;28;20590;-61
2022/09/12 03:03:30;;;;;;;3.55;2.65;;;;;;;14.30;100.00;94311.78;5033649;28;20190;-61
2022/09/12 03:06:02;;;;;;;2.53;2.33;;;;;;;14.45;100.00;94319.63;5033423;28;20652;-60
2022/09/12 03:08:43;;;;;;;2.55;2.17;;;;;;;14.37;100.00;94331.59;5033478;28;20682;-62
2022/09/12 03:11:14;;;;;;;3.40;2.65;;;;;;;14.35;100.00;94323.28;5015497;28;20229;-62
2022/09/12 03:13:58;;;;;;;5.83;3.10;;;;;;;14.30;100.00;94324.56;5033576;28;20230;-63
2022/09/12 03:16:39;;;;;;;2.87;2.67;;;;;;;14.29;100.00;94323.00;5033220;28;20198;-61
2022/09/12 03:19:18;;;;;;;4.57;2.88;;;;;;;14.35;100.00;94323.28;5033563;28;20703;-62
2022/09/12 03:21:59;;;;;;;3.33;2.58;;;;;;;14.38;100.00;94307.66;5033483;28;20182;-61
2022/09/12 03:24:48;;;;;;;4.32;3.05;;;;;;;14.32;100.00;94311.66;5033369;28;20308;-61
2022/09/12 03:27:26;;;;;;;5.30;3.30;;;;;;;14.29;100.00;94309.41;5015631;28;20277;-62
2022/09/12 03:29:53;;;;;;;3.40;3.10;;;;;;;14.20;100.00;94298.34;5033658;28;20249;-61
2022/09/12 03:32:18;;;;;;;3.95;2.80;;;;;;;14.16;100.00;94294.50;5032973;28;20743;-61
2022/09/12 03:34:44;;;;;;;6.00;3.73;;;;;;;14.16;100.00;94294.50;5015342;28;20305;-62
2022/09/12 03:37:09;;;;;;;3.55;2.90;;;;;;;14.14;100.00;94298.97;5033038;28;20190;-60
2022/09/12 03:39:35;;;;;;;3.50;3.10;;;;;;;14.16;100.00;94291.13;5033298;28;20218;-60
2022/09/12 03:42:00;;;;;;;3.53;3.13;;;;;;;14.09;100.00;94292.75;5033285;28;20274;-62
2022/09/12 03:44:25;;;;;;;2.85;2.58;;;;;;;14.13;100.00;94299.16;5014821;28;20700;-62
2022/09/12 03:46:51;;;;;;;3.75;3.17;;;;;;;14.04;100.00;94300.09;5032889;28;20186;-61
2022/09/12 03:49:17;;;;;;;3.03;2.83;;;;;;;13.96;100.00;94280.44;5032937;28;20248;-62
2022/09/12 03:51:42;;;;;;;3.40;3.10;;;;;;;13.99;100.00;94284.44;5032869;28;20210;-62
2022/09/12 03:54:08;;;;;;;4.07;3.23;;;;;;;14.02;100.00;94286.66;5032821;28;20232;-63
2022/09/12 03:56:36;;;;;;;5.77;4.13;;;;;;;13.92;100.00;94286.03;5032665;28;20619;-63
2022/09/12 03:59:05;;;;;;;4.63;3.30;;;;;;;13.96;100.00;94284.75;5032946;28;20210;-61
2022/09/12 04:01:31;;;;;;;4.83;3.23;;;;;;;13.96;100.00;94282.19;5032546;28;20297;-61
2022/09/12 04:03:57;;;;;;;3.00;2.70;;;;;;;13.97;100.00;94281.25;5014985;28;20221;-60
2022/09/12 04:06:22;;;;;;;4.17;3.50;;;;;;;13.96;100.00;94287.31;5032587;28;20190;-61
2022/09/12 04:08:50;;;;;;;3.37;3.07;;;;;;;13.87;100.00;94291.63;5032271;28;20260;-62
2022/09/12 04:11:16;;;;;;;3.20;2.90;;;;;;;13.84;100.00;94289.38;5014556;28;20190;-62
2022/09/12 04:13:43;;;;;;;4.40;3.25;;;;;;;13.80;100.00;94287.28;5032296;28;20301;-62
2022/09/12 04:16:10;;;;;;;3.20;2.80;;;;;;;13.85;100.00;94293.56;5032386;28;20802;-62
2022/09/12 04:18:36;;;;;;;3.25;2.75;;;;;;;13.87;100.00;94298.50;5032149;28;20245;-64
2022/09/12 04:21:10;;;;;;;3.33;3.03;;;;;;;13.81;100.00;94297.38;5032474;28;20182;-61
2022/09/12 04:23:36;;;;;;;5.53;3.72;;;;;;;13.91;100.00;94297.22;5032436;28;20226;-62
2022/09/12 04:26:05;;;;;;;4.80;3.20;;;;;;;13.88;100.00;94300.88;5032297;28;20182;-62
2022/09/12 04:28:31;;;;;;;5.23;3.97;;;;;;;13.91;100.00;94310.00;5014437;28;20229;-63
2022/09/12 04:31:04;;;;;;;6.40;3.97;;;;;;;13.92;100.00;94311.59;5014263;28;20190;-60
2022/09/12 04:33:30;;;;;;;4.50;3.70;;;;;;;13.94;100.00;94309.66;5031970;28;20249;-62
2022/09/12 04:36:01;;;;;;;6.30;4.35;;;;;;;14.01;100.00;94311.44;5032304;28;20194;-60
2022/09/12 04:38:26;;;;;;;7.87;5.37;;;;;;;13.97;100.00;94311.91;5032258;28;20190;-63
2022/09/12 04:40:52;;;;;;;7.97;5.40;;;;;;;14.02;100.00;94318.16;5032238;28;20209;-62
2022/09/12 04:43:17;;;;;;;6.97;5.17;;;;;;;14.07;100.00;94313.38;5032101;28;20271;-63
2022/09/12 04:45:43;;;;;;;5.60;4.47;;;;;;;14.11;100.00;94311.28;5014305;28;20186;-60
2022/09/12 04:48:08;;;;;;;6.40;3.63;;;;;;;14.17;100.00;94315.75;5032065;28;20194;-59
2022/09/12 04:50:33;;;;;;;6.27;4.90;;;;;;;14.23;100.00;94331.28;5032021;28;20232;-61
2022/09/12 04:52:59;;;;;;;6.68;4.35;;;;;;;14.22;100.00;94323.78;5014221;28;20202;-63
2022/09/12 04:55:25;;;;;;;6.03;4.97;;;;;;;14.27;100.00;94334.31;5031740;28;20305;-62
2022/09/12 04:57:51;;;;;;;4.47;4.00;;;;;;;14.20;100.00;94334.13;5031687;28;20196;-63
2022/09/12 05:00:16;;;;;;;6.13;4.60;;;;;;;14.29;100.00;94329.84;5014093;28;20268;-62
2022/09/12 05:02:42;;;;;;;6.90;4.97;;;;;;;14.16;100.00;94320.06;5031979;28;20197;-61
2022/09/12 05:05:08;;;;;;;6.55;4.95;;;;;;;14.21;100.00;94319.59;5031477;28;20288;-62
2022/09/12 05:07:34;;;;;;;5.90;4.67;;;;;;;14.24;100.00;94319.28;5031593;28;20199;-63
2022/09/12 05:09:59;;;;;;;6.03;4.73;;;;;;;14.27;100.00;94330.00;5031299;28;20214;-60
2022/09/12 05:12:26;;;;;;;6.63;4.53;;;;;;;14.38;100.00;94339.13;5031481;28;20214;-64
2022/09/12 05:14:51;;;;;;;5.37;4.77;;;;;;;14.44;100.00;94346.16;5031482;28;20214;-61
2022/09/12 05:17:17;;;;;;;6.40;4.38;;;;;;;14.53;100.00;94350.31;5031656;28;20264;-62
2022/09/12 05:19:43;;;;;;;7.10;4.30;;;;;;;14.59;100.00;94344.53;5031302;28;20259;-63
2022/09/12 05:22:08;;;;;;;6.03;4.10;;;;;;;14.58;100.00;94353.19;5031548;28;20627;-61
2022/09/12 05:24:34;;;;;;;7.47;4.40;;;;;;;14.61;100.00;94349.50;5031681;28;20575;-60
2022/09/12 05:26:59;;;;;;;6.50;5.13;;;;;;;14.65;100.00;94351.56;5031393;28;20223;-62
2022/09/12 05:29:25;;;;;;;5.68;4.55;;;;;;;14.71;100.00;94357.78;5031423;28;20229;-62
2022/09/12 05:31:51;;;;;;;8.77;4.00;;;;;;;14.77;100.00;94370.75;5031169;28;20292;-61
2022/09/12 05:34:17;;;;;;;5.40;4.53;;;;;;;14.87;100.00;94365.44;5031480;28;20244;-62
2022/09/12 05:36:43;;;;;;;5.80;4.72;;;;;;;14.97;100.00;94373.75;5013289;28;20197;-63
2022/09/12 05:39:08;;;;;;;4.50;3.67;;;;;;;14.99;100.00;94387.19;5013295;28;20228;-60
2022/09/12 05:41:34;;;;;;;5.78;4.57;;;;;;;14.99;100.00;94371.81;5031212;28;20308;-63
2022/09/12 05:44:03;;;;;;;4.88;4.38;;;;;;;14.91;100.00;94380.31;4996762;28;20654;-60
2022/09/12 05:46:34;;;;;;;5.75;4.40;;;;;;;15.04;100.00;94365.28;5031011;28;20182;-62
2022/09/12 05:49:08;;;;;;;5.07;4.17;;;;;;;15.16;100.00;94378.53;5031391;28;20210;-63
2022/09/12 05:51:37;;;;;;;12.00;4.83;;;;;;;15.12;100.00;94370.38;5030936;28;20310;-60
2022/09/12 05:54:04;;;;;;;6.50;4.15;;;;;;;15.20;100.00;94374.66;5031128;28;20276;-62
2022/09/12 05:56:33;;;;;;;4.87;4.37;;;;;;;15.29;100.00;94376.22;5030605;28;20186;-62
2022/09/12 05:59:01;;;;;;;6.78;4.22;;;;;;;15.34;100.00;94368.84;5012732;28;20283;-60
2022/09/12 06:01:28;;;;;;;4.40;4.00;;;;;;;15.42;100.00;94380.81;5013104;28;20178;-59
2022/09/12 06:03:56;;;;;;;5.83;4.37;;;;;;;15.52;100.00;94384.03;5030763;28;20252;-63
2022/09/12 06:06:24;;;;;;;4.10;3.70;;;;;;;15.54;100.00;94395.72;5012989;28;20727;-61
2022/09/12 06:08:52;;;;;;;6.20;4.07;;;;;;;15.64;100.00;94377.56;5030983;28;20222;-63
2022/09/12 06:11:22;;;;;;;4.17;3.87;;;;;;;15.64;100.00;94382.69;5030681;28;20182;-63
2022/09/12 06:13:49;;;;;;;7.85;4.50;;;;;;;15.68;100.00;94389.88;5030636;28;20222;-61
2022/09/12 06:16:20;;;;;;;5.57;4.30;;;;;;;15.80;100.00;94375.72;5031243;28;20202;-61
2022/09/12 06:18:52;;;;;;;5.22;3.95;;;;;;;15.83;100.00;94395.13;5034275;28;20220;-60
2022/09/12 06:21:18;;;;;;;5.40;3.75;;;;;;;15.87;100.00;94389.50;5000000;28;20228;-61
2022/09/12 06:23:45;;;;;;;5.10;4.53;;;;;;;15.94;100.00;94399.84;5034215;28;20221;-60
2022/09/12 06:26:11;;;;;;;5.55;4.07;;;;;;;15.99;100.00;94410.41;5016750;28;20610;-60
2022/09/12 06:28:39;;;;;;;4.82;3.58;;;;;;;16.06;100.00;94400.28;5033833;28;20225;-64
2022/09/12 06:31:13;;;;;;;10.18;4.35;;;;;;;16.13;100.00;94403.75;5033948;28;20186;-64
2022/09/12 06:33:49;;;;;;;4.25;3.95;;;;;;;16.16;100.00;94409.34;5015767;28;20279;-63
2022/09/12 06:36:21;;;;;;;5.13;3.75;;;;;;;16.24;100.00;94419.53;5016008;28;20194;-64
2022/09/12 06:38:50;;;;;;;4.20;3.58;;;;;;;16.20;100.00;94400.34;5016517;28;20569;-61
2022/09/12 06:41:15;;;;;;;4.22;3.92;;;;;;;16.07;100.00;94405.25;5033666;28;20186;-61
2022/09/12 06:43:41;;;;;;;7.53;4.47;;;;;;;16.20;100.00;94402.91;5033667;28;20214;-63
2022/09/12 06:46:08;;;;;;;4.05;3.70;;;;;;;16.02;100.00;94417.75;5015918;28;20664;-62
2022/09/12 06:48:34;;;;;;;6.97;4.20;;;;;;;16.04;100.00;94400.44;5033540;28;20210;-64
2022/09/12 06:51:02;;;;;;;7.28;4.13;;;;;;;16.06;100.00;94401.06;5033657;28;20178;-64
2022/09/12 06:53:29;;;;;;;4.50;4.05;;;;;;;16.07;100.00;94405.25;5033397;28;20675;-63
2022/09/12 06:55:56;;;;;;;5.63;4.03;;;;;;;16.20;100.00;94391.88;5033563;28;20255;-62
2022/09/12 06:58:22;;;;;;;4.80;4.30;;;;;;;16.20;100.00;94392.63;5033447;28;20194;-61
2022/09/12 07:00:47;;;;;;;6.32;4.68;;;;;;;16.37;100.00;94403.59;5033821;28;20179;-62
2022/09/12 07:03:13;;;;;;;7.35;4.38;;;;;;;16.46;100.00;94408.50;5033563;28;20216;-61
2022/09/12 07:05:39;;;;;;;7.10;4.25;;;;;;;16.56;100.00;94434.75;5033095;28;20182;-61
2022/09/12 07:08:04;;;;;;;4.55;4.00;;;;;;;16.69;100.00;94444.47;5032977;28;20197;-61
2022/09/12 07:10:30;;;;;;;4.38;4.07;;;;;;;16.68;100.00;94455.72;5032977;28;20214;-61
2022/09/12 07:12:56;;;;;;;5.25;4.75;;;;;;;16.85;100.00;94458.97;5032967;28;20214;-62
2022/09/12 07:15:21;;;;;;;4.93;4.47;;;;;;;16.93;100.00;94495.63;5033148;28;20213;-61
2022/09/12 07:17:46;;;;;;;6.68;3.85;;;;;;;16.74;100.00;94467.88;5032711;28;20569;-60
2022/09/12 07:20:12;;;;;;;4.10;3.22;;;;;;;16.83;100.00;94463.47;5015018;28;20210;-59
2022/09/12 07:22:37;;;;;;;3.97;3.58;;;;;;;16.82;100.00;94475.50;5032788;28;20659;-61
2022/09/12 07:25:03;;;;;;;4.38;4.00;;;;;;;16.86;100.00;94475.94;5032886;28;20221;-60
2022/09/12 07:27:29;;;;;;;5.53;4.00;;;;;;;16.97;100.00;94486.59;5032303;28;20192;-63
2022/09/12 07:29:59;;;;;;;4.03;3.72;;;;;;;17.14;100.00;94500.94;5032486;28;20210;-62
2022/09/12 07:32:24;;;;;;;4.63;4.10;;;;;;;17.17;100.00;94531.41;5014774;28;20547;-62
2022/09/12 07:34:51;;;;;;;4.15;3.72;;;;;;;17.14;100.00;94530.94;5032681;28;20268;-61
2022/09/12 07:37:16;;;;;;;4.82;4.43;;;;;;;17.25;100.00;94523.63;5014985;28;20268;-62
2022/09/12 07:39:42;;;;;;;4.68;4.28;;;;;;;17.48;100.00;94521.81;5033139;28;20661;-62
2022/09/12 07:42:07;;;;;;;6.07;4.32;;;;;;;17.71;100.00;94537.22;5014823;28;20278;-63
2022/09/12 07:44:33;;;;;;;4.88;4.20;;;;;;;17.94;100.00;94537.13;5032984;28;20673;-61
2022/09/12 07:46:59;;;;;;;4.38;3.97;;;;;;;17.70;100.00;94597.34;5032539;28;20202;-62
2022/09/12 07:49:24;;;;;;;4.72;4.32;;;;;;;17.82;100.00;94580.50;5032187;28;20214;-61
2022/09/12 07:51:50;;;;;;;4.40;4.03;;;;;;;17.83;100.00;94564.13;5032324;28;20696;-62
2022/09/12 07:54:16;;;;;;;4.80;4.40;;;;;;;17.72;100.00;94577.38;5014669;28;20803;-61
2022/09/12 07:56:42;;;;;;;4.63;4.22;;;;;;;17.60;100.00;94566.75;5032176;28;20218;-60
2022/09/12 07:59:07;;;;;;;5.07;4.68;;;;;;;17.62;100.00;94561.41;5032146;28;20244;-61
2022/09/12 08:01:33;;;;;;;5.13;4.72;;;;;;;17.63;100.00;94569.94;5014682;28;20202;-60
2022/09/12 08:03:59;;;;;;;5.68;4.45;;;;;;;17.65;100.00;94550.78;5032307;28;20688;-61
2022/09/12 08:06:27;;;;;;;5.93;4.75;;;;;;;17.82;100.00;94567.66;5014262;28;20667;-62
2022/09/12 08:08:54;;;;;;;6.10;5.47;;;;;;;17.85;100.00;94569.88;5032156;28;20288;-60
2022/09/12 08:11:22;;;;;;;5.32;4.82;;;;;;;17.93;100.00;94582.66;5031886;28;20194;-62
2022/09/12 08:13:48;;;;;;;5.85;4.95;;;;;;;17.93;100.00;94582.66;5031881;28;20218;-62
2022/09/12 08:16:16;;;;;;;4.05;3.50;;;;;;;18.11;99.19;94618.34;5031879;28;20714;-61
2022/09/12 08:18:43;;;;;;;4.90;4.40;;;;;;;18.16;99.53;94608.31;5031497;28;20300;-63
2022/09/12 08:21:13;;;;;;;3.33;3.10;;;;;;;18.11;99.09;94611.41;5031927;28;20186;-60
2022/09/12 08:23:38;;;;;;;5.03;4.25;;;;;;;18.36;99.33;94592.16;5031830;28;20224;-61
2022/09/12 08:26:05;;;;;;;5.15;4.15;;;;;;;18.48;98.65;94604.63;5013981;28;20673;-62
2022/09/12 08:28:33;;;;;;;8.40;3.70;;;;;;;18.25;98.80;94596.94;5014127;28;20200;-61
2022/09/12 08:31:06;;;;;;;4.30;3.90;;;;;;;17.94;100.00;94560.28;5031841;28;20209;-62
2022/09/12 08:33:32;;;;;;;4.63;4.22;;;;;;;17.95;100.00;94544.69;5031794;28;20337;-62
2022/09/12 08:36:06;;;;;;;4.10;3.70;;;;;;;18.14;100.00;94556.25;5031611;28;20725;-61
2022/09/12 08:38:33;;;;;;;3.60;3.35;;;;;;;18.34;99.12;94573.50;5030838;28;20182;-61
2022/09/12 08:41:11;;;;;;;3.33;3.13;;;;;;;18.73;98.17;94603.31;5031054;28;20198;-61
2022/09/12 08:43:48;;;;;;;3.42;2.67;;;;;;;18.46;98.58;94591.94;5013811;28;20259;-61
2022/09/12 08:46:27;;;;;;;4.00;3.38;;;;;;;18.49;98.79;94576.09;5031456;28;20212;-63
2022/09/12 08:48:56;;;;;;;3.38;3.13;;;;;;;18.20;98.76;94576.88;5031488;28;20202;-63
2022/09/12 08:51:21;;;;;;;4.05;3.38;;;;;;;18.27;99.79;94552.06;5031709;28;20190;-62
2022/09/12 08:53:50;;;;;;;3.30;3.00;;;;;;;18.51;98.57;94581.06;5031620;28;20285;-60
2022/09/12 08:56:16;;;;;;;4.72;3.17;;;;;;;18.37;97.73;94587.81;5031584;28;20236;-61
2022/09/12 08:58:43;;;;;;;3.95;3.20;;;;;;;18.07;98.26;94569.00;5031481;28;20210;-61
2022/09/12 09:01:18;;;;;;;3.63;3.03;;;;;;;17.94;100.00;94529.41;5031853;28;20196;-63
2022/09/12 09:04:02;;;;;;;5.30;3.90;;;;;;;18.06;100.00;94518.50;5013861;28;20636;-61
2022/09/12 09:06:46;;;;;;;3.63;3.33;;;;;;;18.06;99.17;94539.09;5013609;28;20213;-60
2022/09/12 09:12:13;;;;;;;4.05;3.67;;;;;;;18.98;95.18;94649.22;5038724;22;20241;-60
2022/09/12 09:15:13;;;;;;;4.53;2.80;;;;;;;18.95;92.06;94677.91;5031466;28;20672;-60
2022/09/12 09:17:50;;;;;;;4.03;3.72;;;;;;;19.45;88.61;94715.81;5031200;28;20660;-63
2022/09/12 09:20:37;;;;;;;5.85;3.63;;;;;;;19.22;87.65;94676.44;5031554;28;20209;-59
2022/09/12 09:23:14;;;;;;;4.85;3.70;;;;;;;19.62;85.86;94701.69;5031282;28;20683;-60
2022/09/12 09:26:01;;;;;;;3.63;3.28;;;;;;;19.99;76.18;94709.19;5031702;28;20769;-62
2022/09/12 09:28:43;;;;;;;4.25;3.88;;;;;;;19.89;76.80;94659.69;5031443;28;20194;-62
2022/09/12 09:31:17;;;;;;;3.97;3.67;;;;;;;20.36;73.21;94717.66;5031411;28;20711;-61
2022/09/12 09:33:45;;;;;;;4.75;4.25;;;;;;;20.09;73.11;94686.44;5031098;28;20222;-62
2022/09/12 09:36:28;;;;;;;4.82;4.38;;;;;;;20.38;72.84;94682.88;5031640;28;20183;-61
2022/09/12 09:39:04;;;;;;;4.45;3.45;;;;;;;19.63;71.38;94705.88;5013242;28;20591;-61
2022/09/12 09:41:36;;;;;;;4.45;4.03;;;;;;;19.14;76.26;94594.09;5031156;28;20182;-62
2022/09/12 09:44:02;;;;;;;4.88;3.95;;;;;;;19.33;77.39;94570.31;5030918;28;20229;-63
2022/09/12 09:46:27;;;;;;;4.28;3.88;;;;;;;19.99;73.76;94638.72;4997048;28;20225;-59
2022/09/12 09:48:55;;;;;;;4.30;3.90;;;;;;;20.46;71.11;94681.97;5013336;28;20733;-60
2022/09/12 09:51:26;;;;;;;6.65;3.72;;;;;;;20.12;73.32;94640.59;5013142;28;20600;-60
2022/09/12 09:54:05;;;;;;;4.15;3.75;;;;;;;20.21;71.86;94658.34;5030738;28;20210;-61
2022/09/12 09:56:39;;;;;;;3.65;3.35;;;;;;;20.08;71.61;94651.28;5030988;28;20521;-60
2022/09/12 09:59:10;;;;;;;3.40;3.20;;;;;;;19.70;72.50;94631.91;5030759;28;20232;-64
2022/09/12 10:01:38;;;;;;;7.18;3.10;;;;;;;19.27;75.09;94571.00;5030621;28;20252;-63
2022/09/12 10:04:04;;;;;;;4.07;3.78;;;;;;;19.64;73.59;94616.38;5013045;28;20213;-62
2022/09/12 10:06:36;;;;;;;3.22;2.92;;;;;;;19.86;72.04;94634.22;5030742;28;20190;-63
2022/09/12 10:09:16;;;;;;;4.20;3.33;;;;;;;19.69;73.34;94609.69;5030837;28;20758;-62
2022/09/12 10:11:42;;;;;;;3.67;3.38;;;;;;;19.80;72.67;94613.53;5012895;28;20194;-63
2022/09/12 10:14:30;;;;;;;3.47;3.00;;;;;;;20.51;70.67;94646.03;5030776;28;20202;-61
2022/09/12 10:16:57;;;;;;;3.25;3.00;;;;;;;20.57;69.31;94682.22;5030751;28;20190;-60
2022/09/12 10:19:33;;;;;;;4.85;3.20;;;;;;;20.55;67.85;94711.81;5030660;28;20558;-60
2022/09/12 10:21:59;;;;;;;4.25;3.30;;;;;;;20.12;68.88;94658.66;5030531;28;20271;-62
2022/09/12 10:24:31;;;;;;;3.88;3.47;;;;;;;20.85;67.78;94687.34;5030589;28;20260;-62
2022/09/12 10:27:05;;;;;;;3.35;3.15;;;;;;;20.68;67.80;94684.28;5012910;28;20724;-62
2022/09/12 10:29:35;;;;;;;4.10;3.70;;;;;;;20.75;67.85;94681.72;5030579;28;20217;-61
2022/09/12 10:32:07;;;;;;;3.90;3.58;;;;;;;21.13;67.44;94695.06;5030330;28;20221;-61
2022/09/12 10:34:44;;;;;;;4.20;3.70;;;;;;;20.81;68.18;94663.69;5030368;28;20206;-62
2022/09/12 10:37:25;;;;;;;3.80;3.50;;;;;;;20.31;68.59;94645.09;5012538;28;20221;-63
2022/09/12 10:39:53;;;;;;;4.00;3.70;;;;;;;20.23;68.93;94643.47;5038006;22;21254;-64
2022/09/12 10:42:47;;;;;;;7.72;4.18;;;;;;;20.55;69.94;94619.63;5012585;28;20209;-63
2022/09/12 10:45:29;;;;;;;4.65;4.25;;;;;;;20.71;69.18;94628.84;5030355;28;20745;-60
2022/09/12 10:48:30;;;;;;;5.20;4.60;;;;;;;20.58;70.30;94600.38;5030117;28;20660;-60
2022/09/12 10:51:00;;;;;;;4.35;3.95;;;;;;;21.08;65.47;94711.16;5012931;28;20638;-61
2022/09/12 10:53:39;;;;;;;4.95;3.47;;;;;;;20.92;63.59;94729.53;5030232;28;20210;-60
2022/09/12 10:56:07;;;;;;;4.25;3.70;;;;;;;21.49;62.92;94770.63;5030603;28;20202;-61
2022/09/12 10:59:11;;;;;;;3.60;3.30;;;;;;;21.06;61.52;94764.84;5030189;28;20222;-62
2022/09/12 11:02:28;;;;;;;3.90;3.00;;;;;;;21.24;59.72;94806.50;5030235;28;20289;-62
2022/09/12 11:05:36;;;;;;;4.72;3.30;;;;;;;21.74;59.04;94803.53;4983362;28;20233;-62
2022/09/12 11:08:04;;;;;;;3.95;3.42;;;;;;;22.11;58.65;94815.25;5033332;28;20213;-61
2022/09/12 11:11:02;;;;;;;3.17;2.95;;;;;;;22.01;58.98;94788.13;5033195;28;20752;-62
2022/09/12 11:14:02;;;;;;;4.15;3.83;;;;;;;21.48;61.35;94710.31;5033282;28;20683;-61
2022/09/12 11:16:44;;;;;;;4.57;4.18;;;;;;;21.38;61.78;94698.72;5033516;28;20232;-62
2022/09/12 11:19:24;;;;;;;3.95;3.65;;;;;;;21.77;60.49;94750.59;5015428;28;20271;-60
2022/09/12 11:22:10;;;;;;;3.75;3.45;;;;;;;21.74;59.89;94751.78;5033386;28;20663;-63
2022/09/12 11:24:53;;;;;;;5.43;4.22;;;;;;;21.67;60.24;94730.25;5033273;28;20643;-61
2022/09/12 11:27:29;;;;;;;3.63;3.42;;;;;;;21.65;59.91;94732.22;5033026;28;20201;-63
2022/09/12 11:30:26;;;;;;;3.80;3.50;;;;;;;21.69;59.45;94746.38;5015569;28;20206;-62
2022/09/12 11:33:18;;;;;;;6.50;3.15;;;;;;;22.02;58.73;94774.19;5013215;28;20226;-62
2022/09/12 11:35:49;;;;;;;4.22;3.80;;;;;;;21.71;60.33;94722.91;5019396;28;20229;-61
2022/09/12 11:38:44;;;;;;;3.97;3.58;;;;;;;22.42;58.93;94766.22;5015055;28;20198;-63
2022/09/12 11:41:21;;;;;;;3.72;3.42;;;;;;;22.28;57.47;94794.94;5016700;28;20252;-61
2022/09/12 11:44:00;;;;;;;3.67;3.30;;;;;;;21.94;58.06;94758.84;5032965;28;20754;-61
2022/09/12 11:46:36;;;;;;;3.15;2.95;;;;;;;21.71;59.49;94723.69;5032770;28;20186;-61
2022/09/12 11:49:14;;;;;;;4.28;3.67;;;;;;;21.77;59.72;94706.59;5032527;28;20591;-61